sensor_id;sensor_type;location;lat;lon;timestamp;temperature;humidity
52643;DHT22;38531;53.296;6.614;2023-08-31T00:00:48;11.30;99.90
52643;DHT22;38531;53.296;6.614;2023-08-31T00:03:17;11.40;99.90
52643;DHT22;38531;53.296;6.614;2023-08-31T00:05:43;11.30;99.90
52643;DHT22;38531;53.296;6.614;2023-08-31T00:08:10;11.20;99.90
52643;DHT22;38531;53.296;6.614;2023-08-31T00:10:37;12.10;99.90
52643;DHT22;38531;53.296;6.614;2023-08-31T00:13:04;11.20;99.90
52643;DHT22;38531;53.296;6.614;2023-08-31T00:15:30;11.20;99.90
52643;DHT22;38531;53.296;6.614;2023-08-31T00:17:58;11.10;99.90
52643;DHT22;38531;53.296;6.614;2023-08-31T00:20:24;11.20;99.90
52643;DHT22;38531;53.296;6.614;2023-08-31T00:22:50;11.10;99.90
52643;DHT22;38531;53.296;6.614;2023-08-31T00:25:16;11.60;99.90
52643;DHT22;38531;53.296;6.614;2023-08-31T00:27:43;11.60;99.90
52643;DHT22;38531;53.296;6.614;2023-08-31T00:30:10;11.20;99.90
52643;DHT22;38531;53.296;6.614;2023-08-31T00:36:26;11.10;99.90
52643;DHT22;38531;53.296;6.614;2023-08-31T00:38:51;11.10;99.90
52643;DHT22;38531;53.296;6.614;2023-08-31T00:41:18;11.10;99.90
52643;DHT22;38531;53.296;6.614;2023-08-31T00:43:45;11.10;99.90
52643;DHT22;38531;53.296;6.614;2023-08-31T00:46:14;11.00;99.90
52643;DHT22;38531;53.296;6.614;2023-08-31T00:48:42;11.00;99.90
52643;DHT22;38531;53.296;6.614;2023-08-31T00:51:08;11.00;99.90
52643;DHT22;38531;53.296;6.614;2023-08-31T00:53:36;11.00;99.90
52643;DHT22;38531;53.296;6.614;2023-08-31T00:56:02;11.00;99.90
52643;DHT22;38531;53.296;6.614;2023-08-31T00:58:29;11.00;99.90
52643;DHT22;38531;53.296;6.614;2023-08-31T01:01:12;10.90;99.90
52643;DHT22;38531;53.296;6.614;2023-08-31T01:06:33;10.90;99.90
52643;DHT22;38531;53.296;6.614;2023-08-31T01:09:11;10.90;99.90
52643;DHT22;38531;53.296;6.614;2023-08-31T01:14:19;10.80;99.90
52643;DHT22;38531;53.296;6.614;2023-08-31T01:16:51;10.90;99.90
52643;DHT22;38531;53.296;6.614;2023-08-31T01:22:02;10.80;99.90
52643;DHT22;38531;53.296;6.614;2023-08-31T01:24:30;11.40;99.90
52643;DHT22;38531;53.296;6.614;2023-08-31T01:26:59;10.70;99.90
52643;DHT22;38531;53.296;6.614;2023-08-31T01:29:25;11.30;99.90
52643;DHT22;38531;53.296;6.614;2023-08-31T01:31:51;10.70;99.90
52643;DHT22;38531;53.296;6.614;2023-08-31T01:34:19;10.90;99.90
52643;DHT22;38531;53.296;6.614;2023-08-31T01:36:50;10.70;99.90
52643;DHT22;38531;53.296;6.614;2023-08-31T01:39:27;10.70;99.90
52643;DHT22;38531;53.296;6.614;2023-08-31T01:41:58;11.10;99.90
52643;DHT22;38531;53.296;6.614;2023-08-31T01:44:26;10.80;99.90
52643;DHT22;38531;53.296;6.614;2023-08-31T01:47:05;10.60;99.90
52643;DHT22;38531;53.296;6.614;2023-08-31T01:49:40;10.60;99.90
52643;DHT22;38531;53.296;6.614;2023-08-31T01:52:07;10.60;99.90
52643;DHT22;38531;53.296;6.614;2023-08-31T01:54:33;10.60;99.90
52643;DHT22;38531;53.296;6.614;2023-08-31T01:56:59;10.50;99.90
52643;DHT22;38531;53.296;6.614;2023-08-31T01:59:25;10.50;99.90
52643;DHT22;38531;53.296;6.614;2023-08-31T02:01:52;10.50;99.90
52643;DHT22;38531;53.296;6.614;2023-08-31T02:04:22;10.50;99.90
52643;DHT22;38531;53.296;6.614;2023-08-31T02:06:48;10.40;99.90
52643;DHT22;38531;53.296;6.614;2023-08-31T02:09:14;10.40;99.90
52643;DHT22;38531;53.296;6.614;2023-08-31T02:11:40;10.40;99.90
52643;DHT22;38531;53.296;6.614;2023-08-31T02:14:06;10.30;99.90
52643;DHT22;38531;53.296;6.614;2023-08-31T02:16:33;10.30;99.90
52643;DHT22;38531;53.296;6.614;2023-08-31T02:19:08;10.70;99.90
52643;DHT22;38531;53.296;6.614;2023-08-31T02:21:34;10.80;99.90
52643;DHT22;38531;53.296;6.614;2023-08-31T02:24:00;10.20;99.90
52643;DHT22;38531;53.296;6.614;2023-08-31T02:26:25;10.20;99.90
52643;DHT22;38531;53.296;6.614;2023-08-31T02:28:51;10.50;99.90
52643;DHT22;38531;53.296;6.614;2023-08-31T02:31:17;10.30;99.90
52643;DHT22;38531;53.296;6.614;2023-08-31T02:33:46;10.20;99.90
52643;DHT22;38531;53.296;6.614;2023-08-31T02:36:11;10.00;99.90
52643;DHT22;38531;53.296;6.614;2023-08-31T02:38:40;10.20;99.90
52643;DHT22;38531;53.296;6.614;2023-08-31T02:41:05;10.40;99.90
52643;DHT22;38531;53.296;6.614;2023-08-31T02:43:33;10.10;99.90
52643;DHT22;38531;53.296;6.614;2023-08-31T02:46:00;10.10;99.90
52643;DHT22;38531;53.296;6.614;2023-08-31T02:48:26;10.20;99.90
52643;DHT22;38531;53.296;6.614;2023-08-31T02:50:56;10.10;99.90
52643;DHT22;38531;53.296;6.614;2023-08-31T02:53:22;10.10;99.90
52643;DHT22;38531;53.296;6.614;2023-08-31T02:55:48;10.00;99.90
52643;DHT22;38531;53.296;6.614;2023-08-31T02:58:16;10.10;99.90
52643;DHT22;38531;53.296;6.614;2023-08-31T03:00:42;10.20;99.90
52643;DHT22;38531;53.296;6.614;2023-08-31T03:03:11;10.10;99.90
52643;DHT22;38531;53.296;6.614;2023-08-31T03:05:37;10.10;99.90
52643;DHT22;38531;53.296;6.614;2023-08-31T03:08:02;10.10;99.90
52643;DHT22;38531;53.296;6.614;2023-08-31T03:10:28;10.10;99.90
52643;DHT22;38531;53.296;6.614;2023-08-31T03:12:54;10.20;99.90
52643;DHT22;38531;53.296;6.614;2023-08-31T03:15:20;10.10;99.90
52643;DHT22;38531;53.296;6.614;2023-08-31T03:17:46;10.10;99.90
52643;DHT22;38531;53.296;6.614;2023-08-31T03:20:12;10.40;99.90
52643;DHT22;38531;53.296;6.614;2023-08-31T03:22:37;10.40;99.90
52643;DHT22;38531;53.296;6.614;2023-08-31T03:25:03;10.20;99.90
52643;DHT22;38531;53.296;6.614;2023-08-31T03:27:29;10.30;99.90
52643;DHT22;38531;53.296;6.614;2023-08-31T03:29:55;10.50;99.90
52643;DHT22;38531;53.296;6.614;2023-08-31T03:32:21;10.30;99.90
52643;DHT22;38531;53.296;6.614;2023-08-31T03:34:46;10.30;99.90
52643;DHT22;38531;53.296;6.614;2023-08-31T03:37:12;10.60;99.90
52643;DHT22;38531;53.296;6.614;2023-08-31T03:39:38;11.00;99.90
52643;DHT22;38531;53.296;6.614;2023-08-31T03:42:06;10.50;99.90
52643;DHT22;38531;53.296;6.614;2023-08-31T03:44:32;10.50;99.90
52643;DHT22;38531;53.296;6.614;2023-08-31T03:46:58;10.90;99.90
52643;DHT22;38531;53.296;6.614;2023-08-31T03:49:23;10.60;99.90
52643;DHT22;38531;53.296;6.614;2023-08-31T03:51:51;10.70;99.90
52643;DHT22;38531;53.296;6.614;2023-08-31T03:54:19;11.00;99.90
52643;DHT22;38531;53.296;6.614;2023-08-31T03:56:45;10.70;99.90
52643;DHT22;38531;53.296;6.614;2023-08-31T03:59:12;10.60;99.90
52643;DHT22;38531;53.296;6.614;2023-08-31T04:01:38;10.70;99.90
52643;DHT22;38531;53.296;6.614;2023-08-31T04:04:04;10.70;99.90
52643;DHT22;38531;53.296;6.614;2023-08-31T04:06:30;10.60;99.90
52643;DHT22;38531;53.296;6.614;2023-08-31T04:08:56;10.70;99.90
52643;DHT22;38531;53.296;6.614;2023-08-31T04:11:22;10.70;99.90
52643;DHT22;38531;53.296;6.614;2023-08-31T04:13:48;10.70;99.90
52643;DHT22;38531;53.296;6.614;2023-08-31T04:16:14;10.70;99.90
52643;DHT22;38531;53.296;6.614;2023-08-31T04:18:39;10.60;99.90
52643;DHT22;38531;53.296;6.614;2023-08-31T04:21:05;10.70;99.90
52643;DHT22;38531;53.296;6.614;2023-08-31T04:23:31;10.70;99.90
52643;DHT22;38531;53.296;6.614;2023-08-31T04:25:58;10.70;99.90
52643;DHT22;38531;53.296;6.614;2023-08-31T04:28:24;10.80;99.90
52643;DHT22;38531;53.296;6.614;2023-08-31T04:30:50;10.60;99.90
52643;DHT22;38531;53.296;6.614;2023-08-31T04:46:01;10.80;99.90
52643;DHT22;38531;53.296;6.614;2023-08-31T04:48:29;11.00;99.90
52643;DHT22;38531;53.296;6.614;2023-08-31T04:50:58;10.80;99.90
52643;DHT22;38531;53.296;6.614;2023-08-31T04:53:25;10.80;99.90
52643;DHT22;38531;53.296;6.614;2023-08-31T04:55:53;10.80;99.90
52643;DHT22;38531;53.296;6.614;2023-08-31T04:58:19;10.80;99.90
52643;DHT22;38531;53.296;6.614;2023-08-31T05:00:45;10.70;99.90
52643;DHT22;38531;53.296;6.614;2023-08-31T05:03:13;10.70;99.90
52643;DHT22;38531;53.296;6.614;2023-08-31T05:05:39;10.70;99.90
52643;DHT22;38531;53.296;6.614;2023-08-31T05:08:05;10.70;99.90
52643;DHT22;38531;53.296;6.614;2023-08-31T05:10:31;10.70;99.90
52643;DHT22;38531;53.296;6.614;2023-08-31T05:12:57;10.70;99.90
52643;DHT22;38531;53.296;6.614;2023-08-31T05:15:22;10.70;99.90
52643;DHT22;38531;53.296;6.614;2023-08-31T05:17:48;11.10;99.90
52643;DHT22;38531;53.296;6.614;2023-08-31T05:20:14;10.70;99.90
52643;DHT22;38531;53.296;6.614;2023-08-31T05:22:40;10.70;99.90
52643;DHT22;38531;53.296;6.614;2023-08-31T05:25:06;10.70;99.90
52643;DHT22;38531;53.296;6.614;2023-08-31T05:27:32;10.70;99.90
52643;DHT22;38531;53.296;6.614;2023-08-31T05:29:58;10.70;99.90
52643;DHT22;38531;53.296;6.614;2023-08-31T05:32:27;10.80;99.90
52643;DHT22;38531;53.296;6.614;2023-08-31T05:34:56;10.80;99.90
52643;DHT22;38531;53.296;6.614;2023-08-31T05:37:24;10.70;99.90
52643;DHT22;38531;53.296;6.614;2023-08-31T05:39:52;10.80;99.90
52643;DHT22;38531;53.296;6.614;2023-08-31T05:42:18;10.80;99.90
52643;DHT22;38531;53.296;6.614;2023-08-31T05:44:44;11.20;99.90
52643;DHT22;38531;53.296;6.614;2023-08-31T05:47:10;11.10;99.90
52643;DHT22;38531;53.296;6.614;2023-08-31T05:49:38;10.90;99.90
52643;DHT22;38531;53.296;6.614;2023-08-31T05:52:04;11.00;99.90
52643;DHT22;38531;53.296;6.614;2023-08-31T05:54:30;11.00;99.90
52643;DHT22;38531;53.296;6.614;2023-08-31T05:56:56;11.00;99.90
52643;DHT22;38531;53.296;6.614;2023-08-31T05:59:22;11.10;99.90
52643;DHT22;38531;53.296;6.614;2023-08-31T06:01:48;11.20;99.90
52643;DHT22;38531;53.296;6.614;2023-08-31T06:04:14;11.30;99.90
52643;DHT22;38531;53.296;6.614;2023-08-31T06:06:40;11.30;99.90
52643;DHT22;38531;53.296;6.614;2023-08-31T06:09:06;11.40;99.90
52643;DHT22;38531;53.296;6.614;2023-08-31T06:11:32;11.40;99.90
52643;DHT22;38531;53.296;6.614;2023-08-31T06:13:58;11.60;99.90
52643;DHT22;38531;53.296;6.614;2023-08-31T06:16:24;12.00;99.90
52643;DHT22;38531;53.296;6.614;2023-08-31T06:18:50;11.80;99.90
52643;DHT22;38531;53.296;6.614;2023-08-31T06:21:17;11.90;99.90
52643;DHT22;38531;53.296;6.614;2023-08-31T06:23:42;12.00;99.90
52643;DHT22;38531;53.296;6.614;2023-08-31T06:26:08;12.10;99.90
52643;DHT22;38531;53.296;6.614;2023-08-31T06:28:34;12.20;99.90
52643;DHT22;38531;53.296;6.614;2023-08-31T06:31:00;12.30;99.90
52643;DHT22;38531;53.296;6.614;2023-08-31T06:33:26;12.50;99.90
52643;DHT22;38531;53.296;6.614;2023-08-31T06:35:51;12.50;99.90
52643;DHT22;38531;53.296;6.614;2023-08-31T06:38:18;12.60;99.90
52643;DHT22;38531;53.296;6.614;2023-08-31T06:40:44;12.60;99.90
52643;DHT22;38531;53.296;6.614;2023-08-31T06:43:10;12.80;99.90
52643;DHT22;38531;53.296;6.614;2023-08-31T06:45:42;12.80;99.90
52643;DHT22;38531;53.296;6.614;2023-08-31T06:48:08;13.00;99.90
52643;DHT22;38531;53.296;6.614;2023-08-31T06:50:34;13.10;99.90
52643;DHT22;38531;53.296;6.614;2023-08-31T06:53:01;13.30;99.90
52643;DHT22;38531;53.296;6.614;2023-08-31T06:55:27;13.50;99.90
52643;DHT22;38531;53.296;6.614;2023-08-31T06:57:52;13.70;99.90
52643;DHT22;38531;53.296;6.614;2023-08-31T07:00:18;13.70;99.90
52643;DHT22;38531;53.296;6.614;2023-08-31T07:02:44;13.90;99.90
52643;DHT22;38531;53.296;6.614;2023-08-31T07:05:11;13.90;99.90
52643;DHT22;38531;53.296;6.614;2023-08-31T07:07:37;14.10;99.90
52643;DHT22;38531;53.296;6.614;2023-08-31T07:10:06;14.20;99.90
52643;DHT22;38531;53.296;6.614;2023-08-31T07:12:32;14.30;99.90
52643;DHT22;38531;53.296;6.614;2023-08-31T07:14:58;14.40;99.90
52643;DHT22;38531;53.296;6.614;2023-08-31T07:17:23;14.50;99.90
52643;DHT22;38531;53.296;6.614;2023-08-31T07:19:49;14.70;99.90
52643;DHT22;38531;53.296;6.614;2023-08-31T07:22:15;14.80;99.90
52643;DHT22;38531;53.296;6.614;2023-08-31T07:24:41;15.00;99.90
52643;DHT22;38531;53.296;6.614;2023-08-31T07:27:06;15.10;99.90
52643;DHT22;38531;53.296;6.614;2023-08-31T07:29:32;15.20;99.90
52643;DHT22;38531;53.296;6.614;2023-08-31T07:31:58;15.40;99.90
52643;DHT22;38531;53.296;6.614;2023-08-31T07:34:24;15.50;99.90
52643;DHT22;38531;53.296;6.614;2023-08-31T07:36:50;15.60;99.90
52643;DHT22;38531;53.296;6.614;2023-08-31T07:39:16;15.80;99.90
52643;DHT22;38531;53.296;6.614;2023-08-31T07:41:44;16.00;99.90
52643;DHT22;38531;53.296;6.614;2023-08-31T07:44:10;16.10;99.90
52643;DHT22;38531;53.296;6.614;2023-08-31T07:46:43;16.30;99.90
52643;DHT22;38531;53.296;6.614;2023-08-31T07:49:09;16.50;99.90
52643;DHT22;38531;53.296;6.614;2023-08-31T07:51:38;16.60;99.90
52643;DHT22;38531;53.296;6.614;2023-08-31T07:54:04;16.80;99.90
52643;DHT22;38531;53.296;6.614;2023-08-31T07:56:32;17.00;99.90
52643;DHT22;38531;53.296;6.614;2023-08-31T07:58:58;17.20;99.90
52643;DHT22;38531;53.296;6.614;2023-08-31T08:01:24;17.40;99.90
52643;DHT22;38531;53.296;6.614;2023-08-31T08:03:52;17.50;99.90
52643;DHT22;38531;53.296;6.614;2023-08-31T08:06:18;17.50;99.90
52643;DHT22;38531;53.296;6.614;2023-08-31T08:08:44;17.50;99.90
52643;DHT22;38531;53.296;6.614;2023-08-31T08:11:10;17.40;99.90
52643;DHT22;38531;53.296;6.614;2023-08-31T08:13:35;17.30;99.90
52643;DHT22;38531;53.296;6.614;2023-08-31T08:16:02;17.30;99.90
52643;DHT22;38531;53.296;6.614;2023-08-31T08:18:27;17.40;99.90
52643;DHT22;38531;53.296;6.614;2023-08-31T08:20:53;17.50;99.90
52643;DHT22;38531;53.296;6.614;2023-08-31T08:23:19;17.70;99.90
52643;DHT22;38531;53.296;6.614;2023-08-31T08:25:47;17.80;99.90
52643;DHT22;38531;53.296;6.614;2023-08-31T08:28:15;18.00;99.90
52643;DHT22;38531;53.296;6.614;2023-08-31T08:30:41;18.20;99.90
52643;DHT22;38531;53.296;6.614;2023-08-31T08:33:08;18.40;99.90
52643;DHT22;38531;53.296;6.614;2023-08-31T08:35:34;18.50;99.90
52643;DHT22;38531;53.296;6.614;2023-08-31T08:38:00;18.50;99.90
52643;DHT22;38531;53.296;6.614;2023-08-31T08:40:25;18.40;99.90
52643;DHT22;38531;53.296;6.614;2023-08-31T08:42:53;18.40;99.90
52643;DHT22;38531;53.296;6.614;2023-08-31T08:45:20;18.40;99.90
52643;DHT22;38531;53.296;6.614;2023-08-31T08:47:49;18.60;99.90
52643;DHT22;38531;53.296;6.614;2023-08-31T08:50:17;18.80;99.90
52643;DHT22;38531;53.296;6.614;2023-08-31T08:52:43;18.90;99.90
52643;DHT22;38531;53.296;6.614;2023-08-31T08:55:09;19.10;99.90
52643;DHT22;38531;53.296;6.614;2023-08-31T08:57:35;19.20;99.90
52643;DHT22;38531;53.296;6.614;2023-08-31T09:00:01;19.30;99.90
52643;DHT22;38531;53.296;6.614;2023-08-31T09:02:28;19.40;99.90
52643;DHT22;38531;53.296;6.614;2023-08-31T09:04:54;19.50;99.90
52643;DHT22;38531;53.296;6.614;2023-08-31T09:07:21;19.70;99.90
52643;DHT22;38531;53.296;6.614;2023-08-31T09:09:52;19.80;99.90
52643;DHT22;38531;53.296;6.614;2023-08-31T09:12:18;19.90;99.90
52643;DHT22;38531;53.296;6.614;2023-08-31T09:14:57;19.90;99.90
52643;DHT22;38531;53.296;6.614;2023-08-31T09:17:23;20.00;99.90
52643;DHT22;38531;53.296;6.614;2023-08-31T09:23:38;20.20;99.90
52643;DHT22;38531;53.296;6.614;2023-08-31T09:26:04;20.20;99.90
52643;DHT22;38531;53.296;6.614;2023-08-31T09:28:30;20.30;99.90
52643;DHT22;38531;53.296;6.614;2023-08-31T09:31:08;20.20;99.90
52643;DHT22;38531;53.296;6.614;2023-08-31T09:33:37;20.30;99.90
52643;DHT22;38531;53.296;6.614;2023-08-31T09:36:02;20.40;99.90
52643;DHT22;38531;53.296;6.614;2023-08-31T09:38:29;20.40;99.90
52643;DHT22;38531;53.296;6.614;2023-08-31T09:41:05;20.70;99.90
52643;DHT22;38531;53.296;6.614;2023-08-31T09:43:33;20.80;99.90
52643;DHT22;38531;53.296;6.614;2023-08-31T09:46:00;20.70;99.90
52643;DHT22;38531;53.296;6.614;2023-08-31T09:48:29;20.40;99.90
52643;DHT22;38531;53.296;6.614;2023-08-31T09:50:55;20.00;99.90
52643;DHT22;38531;53.296;6.614;2023-08-31T09:53:23;19.60;99.90
52643;DHT22;38531;53.296;6.614;2023-08-31T09:55:51;19.30;99.90
52643;DHT22;38531;53.296;6.614;2023-08-31T09:58:20;19.10;99.90
52643;DHT22;38531;53.296;6.614;2023-08-31T10:00:47;18.90;99.90
52643;DHT22;38531;53.296;6.614;2023-08-31T10:03:14;18.70;99.90
52643;DHT22;38531;53.296;6.614;2023-08-31T10:05:44;18.60;99.90
52643;DHT22;38531;53.296;6.614;2023-08-31T10:08:14;18.50;99.90
52643;DHT22;38531;53.296;6.614;2023-08-31T10:10:41;18.60;99.90
52643;DHT22;38531;53.296;6.614;2023-08-31T10:13:07;18.80;99.90
52643;DHT22;38531;53.296;6.614;2023-08-31T10:15:34;19.00;99.90
52643;DHT22;38531;53.296;6.614;2023-08-31T10:18:07;19.20;99.90
52643;DHT22;38531;53.296;6.614;2023-08-31T10:20:33;19.50;99.90
52643;DHT22;38531;53.296;6.614;2023-08-31T10:23:04;19.50;99.90
52643;DHT22;38531;53.296;6.614;2023-08-31T10:28:20;20.10;99.90
52643;DHT22;38531;53.296;6.614;2023-08-31T10:31:07;20.30;99.90
52643;DHT22;38531;53.296;6.614;2023-08-31T10:33:41;20.50;99.90
52643;DHT22;38531;53.296;6.614;2023-08-31T10:36:15;20.40;99.90
52643;DHT22;38531;53.296;6.614;2023-08-31T10:38:44;20.00;99.90
52643;DHT22;38531;53.296;6.614;2023-08-31T10:43:58;19.30;99.90
52643;DHT22;38531;53.296;6.614;2023-08-31T10:46:31;19.00;99.90
52643;DHT22;38531;53.296;6.614;2023-08-31T10:51:45;18.70;99.90
52643;DHT22;38531;53.296;6.614;2023-08-31T10:57:07;18.60;99.90
52643;DHT22;38531;53.296;6.614;2023-08-31T11:02:27;19.20;99.90
52643;DHT22;38531;53.296;6.614;2023-08-31T11:05:11;19.30;99.90
52643;DHT22;38531;53.296;6.614;2023-08-31T11:07:41;19.50;99.90
52643;DHT22;38531;53.296;6.614;2023-08-31T11:10:24;19.70;99.90
52643;DHT22;38531;53.296;6.614;2023-08-31T11:12:54;19.90;99.90
52643;DHT22;38531;53.296;6.614;2023-08-31T11:15:21;20.10;99.90
52643;DHT22;38531;53.296;6.614;2023-08-31T11:17:50;20.30;99.90
52643;DHT22;38531;53.296;6.614;2023-08-31T11:20:17;20.50;99.90
52643;DHT22;38531;53.296;6.614;2023-08-31T11:22:45;20.80;99.90
52643;DHT22;38531;53.296;6.614;2023-08-31T11:25:13;21.00;99.90
52643;DHT22;38531;53.296;6.614;2023-08-31T11:27:39;20.90;99.90
52643;DHT22;38531;53.296;6.614;2023-08-31T11:30:15;20.70;99.90
52643;DHT22;38531;53.296;6.614;2023-08-31T11:32:48;20.20;99.90
52643;DHT22;38531;53.296;6.614;2023-08-31T11:35:15;19.50;99.90
52643;DHT22;38531;53.296;6.614;2023-08-31T11:37:45;19.30;99.90
52643;DHT22;38531;53.296;6.614;2023-08-31T11:40:13;18.70;99.90
52643;DHT22;38531;53.296;6.614;2023-08-31T11:42:40;18.40;99.90
52643;DHT22;38531;53.296;6.614;2023-08-31T11:45:06;18.10;99.90
52643;DHT22;38531;53.296;6.614;2023-08-31T11:47:33;17.90;99.90
52643;DHT22;38531;53.296;6.614;2023-08-31T11:50:00;17.40;99.90
52643;DHT22;38531;53.296;6.614;2023-08-31T11:52:30;16.90;99.90
52643;DHT22;38531;53.296;6.614;2023-08-31T11:54:57;16.60;99.90
52643;DHT22;38531;53.296;6.614;2023-08-31T11:57:26;16.80;99.90
52643;DHT22;38531;53.296;6.614;2023-08-31T11:59:55;16.30;99.90
52643;DHT22;38531;53.296;6.614;2023-08-31T12:02:21;16.20;99.90
52643;DHT22;38531;53.296;6.614;2023-08-31T12:04:47;16.20;99.90
52643;DHT22;38531;53.296;6.614;2023-08-31T12:07:18;16.40;99.90
52643;DHT22;38531;53.296;6.614;2023-08-31T12:09:44;16.80;99.90
52643;DHT22;38531;53.296;6.614;2023-08-31T12:12:11;17.10;99.90
52643;DHT22;38531;53.296;6.614;2023-08-31T12:14:38;17.30;99.90
52643;DHT22;38531;53.296;6.614;2023-08-31T12:17:08;17.20;99.90
52643;DHT22;38531;53.296;6.614;2023-08-31T12:23:21;17.10;99.90
52643;DHT22;38531;53.296;6.614;2023-08-31T12:25:48;16.90;99.90
52643;DHT22;38531;53.296;6.614;2023-08-31T12:28:14;16.90;99.90
52643;DHT22;38531;53.296;6.614;2023-08-31T12:30:50;17.20;99.90
52643;DHT22;38531;53.296;6.614;2023-08-31T12:33:17;17.50;99.90
52643;DHT22;38531;53.296;6.614;2023-08-31T12:35:43;17.90;99.90
52643;DHT22;38531;53.296;6.614;2023-08-31T12:38:09;18.40;99.90
52643;DHT22;38531;53.296;6.614;2023-08-31T12:40:34;18.40;99.90
52643;DHT22;38531;53.296;6.614;2023-08-31T12:43:00;18.50;99.90
52643;DHT22;38531;53.296;6.614;2023-08-31T12:45:26;18.80;99.90
52643;DHT22;38531;53.296;6.614;2023-08-31T12:47:52;18.80;99.90
52643;DHT22;38531;53.296;6.614;2023-08-31T12:53:59;18.90;99.90
52643;DHT22;38531;53.296;6.614;2023-08-31T12:56:24;19.10;99.90
52643;DHT22;38531;53.296;6.614;2023-08-31T12:58:51;19.30;99.90
52643;DHT22;38531;53.296;6.614;2023-08-31T13:01:19;19.40;99.90
52643;DHT22;38531;53.296;6.614;2023-08-31T13:03:45;19.40;99.90
52643;DHT22;38531;53.296;6.614;2023-08-31T13:13:34;19.70;99.90
52643;DHT22;38531;53.296;6.614;2023-08-31T13:16:00;20.10;99.90
52643;DHT22;38531;53.296;6.614;2023-08-31T13:18:26;20.40;99.90
52643;DHT22;38531;53.296;6.614;2023-08-31T13:20:56;20.60;99.90
52643;DHT22;38531;53.296;6.614;2023-08-31T13:23:22;20.50;99.90
52643;DHT22;38531;53.296;6.614;2023-08-31T13:25:49;20.40;99.90
52643;DHT22;38531;53.296;6.614;2023-08-31T13:28:16;20.30;99.90
52643;DHT22;38531;53.296;6.614;2023-08-31T13:30:42;20.20;99.90
52643;DHT22;38531;53.296;6.614;2023-08-31T13:33:08;19.90;99.90
52643;DHT22;38531;53.296;6.614;2023-08-31T13:35:35;19.70;99.90
52643;DHT22;38531;53.296;6.614;2023-08-31T13:38:01;19.30;99.90
52643;DHT22;38531;53.296;6.614;2023-08-31T13:40:28;19.40;99.90
52643;DHT22;38531;53.296;6.614;2023-08-31T13:42:59;19.20;99.90
52643;DHT22;38531;53.296;6.614;2023-08-31T13:45:31;19.10;99.90
52643;DHT22;38531;53.296;6.614;2023-08-31T13:47:58;19.20;99.90
52643;DHT22;38531;53.296;6.614;2023-08-31T13:50:26;19.60;99.90
52643;DHT22;38531;53.296;6.614;2023-08-31T13:52:52;20.00;99.90
52643;DHT22;38531;53.296;6.614;2023-08-31T13:55:18;20.40;99.90
52643;DHT22;38531;53.296;6.614;2023-08-31T13:57:43;20.80;99.90
52643;DHT22;38531;53.296;6.614;2023-08-31T14:00:09;20.90;99.90
52643;DHT22;38531;53.296;6.614;2023-08-31T14:02:37;20.80;99.90
52643;DHT22;38531;53.296;6.614;2023-08-31T14:08:56;20.20;99.90
52643;DHT22;38531;53.296;6.614;2023-08-31T14:11:21;20.50;99.90
52643;DHT22;38531;53.296;6.614;2023-08-31T14:13:50;20.60;99.90
52643;DHT22;38531;53.296;6.614;2023-08-31T14:16:27;20.60;99.90
52643;DHT22;38531;53.296;6.614;2023-08-31T14:18:53;20.60;99.90
52643;DHT22;38531;53.296;6.614;2023-08-31T14:21:40;20.50;99.90
52643;DHT22;38531;53.296;6.614;2023-08-31T14:24:11;20.30;99.90
52643;DHT22;38531;53.296;6.614;2023-08-31T14:26:37;20.10;99.90
52643;DHT22;38531;53.296;6.614;2023-08-31T14:32:33;20.40;99.90
52643;DHT22;38531;53.296;6.614;2023-08-31T14:34:59;20.20;99.90
52643;DHT22;38531;53.296;6.614;2023-08-31T14:37:35;20.30;99.90
52643;DHT22;38531;53.296;6.614;2023-08-31T14:40:08;20.60;99.90
52643;DHT22;38531;53.296;6.614;2023-08-31T14:42:36;20.50;99.90
52643;DHT22;38531;53.296;6.614;2023-08-31T14:45:05;20.30;99.90
52643;DHT22;38531;53.296;6.614;2023-08-31T14:47:32;20.30;99.90
52643;DHT22;38531;53.296;6.614;2023-08-31T14:49:58;20.30;99.90
52643;DHT22;38531;53.296;6.614;2023-08-31T14:52:26;20.50;99.90
52643;DHT22;38531;53.296;6.614;2023-08-31T14:54:52;20.60;99.90
52643;DHT22;38531;53.296;6.614;2023-08-31T14:57:26;20.70;99.90
52643;DHT22;38531;53.296;6.614;2023-08-31T14:59:52;20.90;99.90
52643;DHT22;38531;53.296;6.614;2023-08-31T15:02:48;21.10;99.90
52643;DHT22;38531;53.296;6.614;2023-08-31T15:05:21;21.00;99.90
52643;DHT22;38531;53.296;6.614;2023-08-31T15:07:52;20.80;99.90
52643;DHT22;38531;53.296;6.614;2023-08-31T15:10:24;20.80;99.90
52643;DHT22;38531;53.296;6.614;2023-08-31T15:12:52;20.70;99.90
52643;DHT22;38531;53.296;6.614;2023-08-31T15:15:32;20.40;99.90
52643;DHT22;38531;53.296;6.614;2023-08-31T15:18:04;20.40;99.90
52643;DHT22;38531;53.296;6.614;2023-08-31T15:20:33;20.40;99.90
52643;DHT22;38531;53.296;6.614;2023-08-31T15:22:59;20.30;99.90
52643;DHT22;38531;53.296;6.614;2023-08-31T15:25:35;20.40;99.90
52643;DHT22;38531;53.296;6.614;2023-08-31T15:28:04;20.40;99.90
52643;DHT22;38531;53.296;6.614;2023-08-31T15:30:30;20.20;99.90
52643;DHT22;38531;53.296;6.614;2023-08-31T15:33:00;20.10;99.90
52643;DHT22;38531;53.296;6.614;2023-08-31T15:43:18;19.50;99.90
52643;DHT22;38531;53.296;6.614;2023-08-31T15:45:47;19.40;99.90
52643;DHT22;38531;53.296;6.614;2023-08-31T15:48:13;19.40;99.90
52643;DHT22;38531;53.296;6.614;2023-08-31T15:50:40;19.50;99.90
52643;DHT22;38531;53.296;6.614;2023-08-31T16:07:31;19.20;99.90
52643;DHT22;38531;53.296;6.614;2023-08-31T16:09:59;19.00;99.90
52643;DHT22;38531;53.296;6.614;2023-08-31T16:12:32;18.90;99.90
52643;DHT22;38531;53.296;6.614;2023-08-31T16:15:56;18.90;99.90
52643;DHT22;38531;53.296;6.614;2023-08-31T16:18:02;18.80;99.90
52643;DHT22;38531;53.296;6.614;2023-08-31T16:23:50;18.60;99.90
52643;DHT22;38531;53.296;6.614;2023-08-31T16:26:22;18.70;99.90
52643;DHT22;38531;53.296;6.614;2023-08-31T16:32:26;18.70;99.90
52643;DHT22;38531;53.296;6.614;2023-08-31T16:35:23;18.90;99.90
52643;DHT22;38531;53.296;6.614;2023-08-31T16:47:41;18.60;99.90
52643;DHT22;38531;53.296;6.614;2023-08-31T16:50:09;18.50;99.90
52643;DHT22;38531;53.296;6.614;2023-08-31T16:52:55;18.40;99.90
52643;DHT22;38531;53.296;6.614;2023-08-31T16:55:43;18.20;99.90
52643;DHT22;38531;53.296;6.614;2023-08-31T16:58:35;18.20;99.90
52643;DHT22;38531;53.296;6.614;2023-08-31T17:01:07;18.00;99.90
52643;DHT22;38531;53.296;6.614;2023-08-31T17:03:33;17.90;99.90
52643;DHT22;38531;53.296;6.614;2023-08-31T17:05:59;17.80;99.90
52643;DHT22;38531;53.296;6.614;2023-08-31T17:08:28;17.70;99.90
52643;DHT22;38531;53.296;6.614;2023-08-31T17:11:04;17.60;99.90
52643;DHT22;38531;53.296;6.614;2023-08-31T17:13:32;17.50;99.90
52643;DHT22;38531;53.296;6.614;2023-08-31T17:15:58;17.50;99.90
52643;DHT22;38531;53.296;6.614;2023-08-31T17:18:23;17.40;99.90